createdAt,value
2018-03-04T10:34:51.629Z,991.73
2018-03-04T10:35:51.587Z,991.78
2018-03-04T10:37:46.145Z,991.91
2018-03-04T10:40:46.020Z,991.85
2018-03-04T10:41:45.930Z,991.83
2018-03-04T10:43:39.453Z,991.79
2018-03-04T10:44:39.401Z,991.77
2018-03-04T10:46:32.893Z,991.75
2018-03-04T10:47:32.863Z,991.76
2018-03-04T10:49:26.397Z,991.69
2018-03-04T10:50:26.343Z,991.71
2018-03-04T10:52:19.846Z,991.71
2018-03-04T10:53:19.817Z,991.74
2018-03-04T10:55:13.345Z,991.74
2018-03-04T10:56:13.308Z,991.72
2018-03-04T10:58:06.834Z,991.63
2018-03-04T10:59:06.768Z,991.58
2018-03-04T11:01:01.275Z,991.61
2018-03-04T11:02:01.239Z,991.67
2018-03-04T11:03:54.777Z,991.56
2018-03-04T11:04:54.719Z,991.59
2018-03-04T11:05:54.717Z,991.53
2018-03-04T11:06:54.664Z,991.50
2018-03-04T11:07:54.669Z,991.55
2018-03-04T11:08:54.616Z,991.50
2018-03-04T11:09:54.589Z,991.47
2018-03-04T11:10:54.562Z,991.48
2018-03-04T11:11:54.535Z,991.47
2018-03-04T11:12:54.506Z,991.49
2018-03-04T11:13:54.485Z,991.48
2018-03-04T11:14:54.458Z,991.46
2018-03-04T11:15:54.435Z,991.45
2018-03-04T11:16:54.412Z,991.48
2018-03-04T11:17:54.399Z,991.41
2018-03-04T11:18:54.353Z,991.43
2018-03-04T11:19:54.329Z,991.41
2018-03-04T11:20:54.304Z,991.38
2018-03-04T11:21:54.282Z,991.34
2018-03-04T11:22:54.249Z,991.36
2018-03-04T11:23:54.227Z,991.37
2018-03-04T11:24:54.201Z,991.35
2018-03-04T11:25:54.174Z,991.34
2018-03-04T11:26:54.147Z,991.31
2018-03-04T11:27:54.129Z,991.32
2018-03-04T11:28:54.094Z,991.31
2018-03-04T11:29:54.078Z,991.29
2018-03-04T11:30:54.052Z,991.30
2018-03-04T11:31:54.016Z,991.26
2018-03-04T11:32:53.995Z,991.22
2018-03-04T11:33:53.994Z,991.18
2018-03-04T11:34:53.942Z,991.16
2018-03-04T11:35:53.922Z,991.16
2018-03-04T11:36:53.898Z,991.14
2018-03-04T11:37:53.862Z,991.13
2018-03-04T11:38:53.837Z,991.09
2018-03-04T11:39:53.811Z,991.09
2018-03-04T11:40:53.790Z,991.11
2018-03-04T11:41:53.756Z,991.13
2018-03-04T11:42:53.811Z,991.13
2018-03-04T11:43:53.708Z,991.10
2018-03-04T11:44:53.682Z,991.10
2018-03-04T11:45:53.665Z,991.08
2018-03-04T11:46:53.644Z,991.12
2018-03-04T11:47:53.605Z,991.13
2018-03-04T11:48:53.575Z,991.17
2018-03-04T11:49:53.557Z,991.14
2018-03-04T11:50:53.525Z,991.15
2018-03-04T11:51:53.500Z,991.14
2018-03-04T11:52:53.470Z,991.18
2018-03-04T11:53:53.437Z,991.18
2018-03-04T11:54:53.428Z,991.25
2018-03-04T11:55:53.416Z,991.31
2018-03-04T11:56:53.363Z,991.29
2018-03-04T11:57:53.342Z,991.28
2018-03-04T11:58:53.305Z,991.25
2018-03-04T11:59:53.288Z,991.24
2018-03-04T12:00:53.278Z,991.18
2018-03-04T12:01:53.241Z,991.18
2018-03-04T12:02:53.214Z,991.15
2018-03-04T12:03:53.183Z,991.22
2018-03-04T12:04:53.154Z,991.21
2018-03-04T12:05:53.138Z,991.20
2018-03-04T12:06:53.110Z,991.22
2018-03-04T12:07:53.087Z,991.24
2018-03-04T12:08:53.059Z,991.21
2018-03-04T12:09:53.033Z,991.20
2018-03-04T12:10:53.002Z,991.21
2018-03-04T12:11:52.983Z,991.13
2018-03-04T12:12:52.948Z,991.08
2018-03-04T12:13:52.926Z,991.08
2018-03-04T12:14:52.898Z,991.02
2018-03-04T12:15:52.873Z,991.02
2018-03-04T12:16:52.840Z,990.96
2018-03-04T12:17:52.815Z,990.98
2018-03-04T12:18:52.791Z,990.99
2018-03-04T12:19:52.776Z,990.96
2018-03-04T12:20:52.735Z,990.96
2018-03-04T12:21:52.714Z,990.93
2018-03-04T12:22:52.690Z,990.94
2018-03-04T12:23:52.664Z,990.89
2018-03-04T12:24:52.635Z,990.91
2018-03-04T12:25:52.609Z,990.91
2018-03-04T12:26:52.586Z,990.94
2018-03-04T12:27:52.556Z,990.89
2018-03-04T12:28:52.570Z,990.90
2018-03-04T12:29:52.561Z,990.85
2018-03-04T12:30:52.499Z,990.85
2018-03-04T12:31:52.452Z,990.86
2018-03-04T12:32:52.429Z,990.82
2018-03-04T12:33:52.403Z,990.79
2018-03-04T12:34:52.383Z,990.76
2018-03-04T12:35:52.347Z,990.72
2018-03-04T12:36:52.325Z,990.70
2018-03-04T12:37:52.301Z,990.70
2018-03-04T12:38:52.274Z,990.67
2018-03-04T12:39:52.250Z,990.65
2018-03-04T12:40:52.233Z,990.63
2018-03-04T12:41:52.205Z,990.64
2018-03-04T12:42:52.172Z,990.66
2018-03-04T12:43:52.148Z,990.66
2018-03-04T12:44:52.126Z,990.64
2018-03-04T12:45:52.094Z,990.61
2018-03-04T12:46:52.076Z,990.61
2018-03-04T12:47:52.044Z,990.60
2018-03-04T12:48:52.022Z,990.57
2018-03-04T12:49:51.995Z,990.56
2018-03-04T12:50:51.967Z,990.53
2018-03-04T12:51:51.941Z,990.53
2018-03-04T12:52:51.914Z,990.53
2018-03-04T12:53:51.891Z,990.48
2018-03-04T12:54:51.866Z,990.49
2018-03-04T12:55:51.839Z,990.47
2018-03-04T12:56:51.815Z,990.45
2018-03-04T12:57:51.794Z,990.42
2018-03-04T12:58:51.768Z,990.42
2018-03-04T12:59:51.738Z,990.38
2018-03-04T13:00:51.718Z,990.37
2018-03-04T13:01:51.686Z,990.38
2018-03-04T13:02:51.668Z,990.39
2018-03-04T13:03:51.639Z,990.37
2018-03-04T13:04:51.606Z,990.39
2018-03-04T13:05:51.587Z,990.40
2018-03-04T13:06:51.604Z,990.38
2018-03-04T13:07:51.537Z,990.35
2018-03-04T13:08:51.510Z,990.33
2018-03-04T13:09:51.483Z,990.28
2018-03-04T13:10:51.466Z,990.29
2018-03-04T13:11:51.434Z,990.27
2018-03-04T13:12:51.408Z,990.27
2018-03-04T13:13:51.402Z,990.26
2018-03-04T13:14:51.358Z,990.22
2018-03-04T13:15:51.332Z,990.20
2018-03-04T13:16:51.309Z,990.20
2018-03-04T13:17:51.283Z,990.17
2018-03-04T13:18:51.267Z,990.20
2018-03-04T13:19:51.240Z,990.14
2018-03-04T13:20:51.212Z,990.10
2018-03-04T13:21:51.190Z,990.09
2018-03-04T13:22:51.159Z,990.08
2018-03-04T13:23:51.136Z,990.08
2018-03-04T13:24:51.109Z,990.05
2018-03-04T13:25:51.083Z,990.05
2018-03-04T13:26:51.058Z,990.03
2018-03-04T13:27:51.054Z,990.01
2018-03-04T13:28:51.008Z,990.01
2018-03-04T13:29:50.984Z,989.94
2018-03-04T13:30:50.955Z,989.99
2018-03-04T13:31:50.937Z,989.98
2018-03-04T13:32:50.911Z,989.98
2018-03-04T13:33:50.885Z,989.97
2018-03-04T13:34:50.872Z,989.98
2018-03-04T13:35:50.843Z,989.96
2018-03-04T13:36:50.814Z,989.92
2018-03-04T13:37:50.786Z,989.89
2018-03-04T13:38:50.767Z,989.94
2018-03-04T13:39:50.731Z,989.91
2018-03-04T13:40:50.723Z,989.88
2018-03-04T13:41:50.685Z,989.90
2018-03-04T13:42:50.660Z,989.87
2018-03-04T13:43:50.632Z,989.88
2018-03-04T13:44:50.608Z,989.87
2018-03-04T13:45:50.583Z,989.90
2018-03-04T13:46:50.554Z,989.87
2018-03-04T13:47:50.532Z,989.89
2018-03-04T13:48:50.502Z,989.87
2018-03-04T13:49:50.483Z,989.88
2018-03-04T13:50:50.458Z,989.84
2018-03-04T13:51:50.430Z,989.85
2018-03-04T13:52:50.412Z,989.88
2018-03-04T13:53:50.383Z,989.85
2018-03-04T13:54:50.373Z,989.83
2018-03-04T13:55:50.333Z,989.82
2018-03-04T13:56:50.307Z,989.79
2018-03-04T13:57:50.290Z,989.79
2018-03-04T13:58:50.261Z,989.77
2018-03-04T13:59:50.249Z,989.78
2018-03-04T14:00:50.209Z,989.76
2018-03-04T14:01:50.182Z,989.72
2018-03-04T14:02:50.161Z,989.67
2018-03-04T14:03:50.138Z,989.66
2018-03-04T14:04:50.116Z,989.65
2018-03-04T14:05:50.088Z,989.70
2018-03-04T14:06:50.061Z,989.68
2018-03-04T14:07:50.041Z,989.67
2018-03-04T14:08:50.013Z,989.71
2018-03-04T14:09:49.997Z,989.69
2018-03-04T14:10:49.971Z,989.69
2018-03-04T14:11:49.941Z,989.73
2018-03-04T14:12:49.931Z,989.74
2018-03-04T14:13:49.898Z,989.72
2018-03-04T14:14:49.876Z,989.70
2018-03-04T14:15:49.858Z,989.70
2018-03-04T14:16:49.826Z,989.70
2018-03-04T14:17:49.803Z,989.67
2018-03-04T14:18:49.779Z,989.66
2018-03-04T14:19:49.765Z,989.63
2018-03-04T14:20:49.732Z,989.67
2018-03-04T14:21:49.704Z,989.63
2018-03-04T14:22:49.683Z,989.67
2018-03-04T14:23:49.662Z,989.57
2018-03-04T14:24:49.633Z,989.61
2018-03-04T14:25:49.613Z,989.60
2018-03-04T14:26:49.611Z,989.58
2018-03-04T14:27:49.582Z,989.59
2018-03-04T14:28:49.541Z,989.54
2018-03-04T14:29:49.516Z,989.53
2018-03-04T14:30:49.498Z,989.55
2018-03-04T14:31:49.483Z,989.56
2018-03-04T14:32:49.449Z,989.59
2018-03-04T14:33:49.425Z,989.59
2018-03-04T14:34:49.404Z,989.60
2018-03-04T14:35:49.375Z,989.59
2018-03-04T14:36:49.360Z,989.63
2018-03-04T14:37:49.338Z,989.58
2018-03-04T14:38:49.304Z,989.58
2018-03-04T14:39:49.297Z,989.63
2018-03-04T14:40:49.262Z,989.55
2018-03-04T14:41:49.234Z,989.59
2018-03-04T14:42:49.213Z,989.55
2018-03-04T14:43:49.192Z,989.54
2018-03-04T14:44:49.162Z,989.51
2018-03-04T14:45:49.143Z,989.49
2018-03-04T14:46:49.129Z,989.46
2018-03-04T14:47:49.092Z,989.43
2018-03-04T14:48:49.069Z,989.47
2018-03-04T14:49:49.059Z,989.41
2018-03-04T14:50:49.023Z,989.45
2018-03-04T14:51:48.997Z,989.40
2018-03-04T14:52:49.001Z,989.41
2018-03-04T14:53:48.959Z,989.38
2018-03-04T14:54:48.924Z,989.39
2018-03-04T14:55:48.900Z,989.42
2018-03-04T14:56:48.881Z,989.39
2018-03-04T14:57:48.856Z,989.42
2018-03-04T14:58:48.833Z,989.38
2018-03-04T14:59:48.817Z,989.41
2018-03-04T15:00:48.786Z,989.43
2018-03-04T15:01:48.762Z,989.38
2018-03-04T15:02:48.742Z,989.35
2018-03-04T15:03:48.715Z,989.35
2018-03-04T15:04:48.697Z,989.32
2018-03-04T15:05:48.663Z,989.34
2018-03-04T15:06:48.648Z,989.32
2018-03-04T15:07:48.619Z,989.37
2018-03-04T15:08:48.596Z,989.33
2018-03-04T15:09:48.603Z,989.34
2018-03-04T15:10:48.555Z,989.28
2018-03-04T15:11:48.525Z,989.29
2018-03-04T15:12:48.495Z,989.26
2018-03-04T15:13:48.488Z,989.33
2018-03-04T15:14:48.455Z,989.30
2018-03-04T15:15:48.430Z,989.31
2018-03-04T15:16:48.403Z,989.36
2018-03-04T15:17:48.389Z,989.36
2018-03-04T15:18:48.356Z,989.34
2018-03-04T15:19:48.332Z,989.34
2018-03-04T15:20:48.319Z,989.33
2018-03-04T15:21:48.284Z,989.33
2018-03-04T15:22:48.257Z,989.32
2018-03-04T15:23:48.238Z,989.28
2018-03-04T15:24:48.213Z,989.28
2018-03-04T15:25:48.192Z,989.29
2018-03-04T15:26:48.166Z,989.26
2018-03-04T15:27:48.146Z,989.22
2018-03-04T15:28:48.112Z,989.22
2018-03-04T15:29:48.090Z,989.21
2018-03-04T15:30:48.072Z,989.20
2018-03-04T15:31:48.046Z,989.14
2018-03-04T15:32:48.018Z,989.12
2018-03-04T15:33:47.998Z,989.15
2018-03-04T15:34:47.975Z,989.09
2018-03-04T15:35:47.949Z,989.13
2018-03-04T15:36:47.926Z,989.07
2018-03-04T15:37:47.901Z,988.99
2018-03-04T15:38:47.885Z,989.02
2018-03-04T15:39:47.856Z,989.00
2018-03-04T15:40:47.830Z,989.01
2018-03-04T15:41:47.802Z,989.02
2018-03-04T15:42:47.778Z,989.00
2018-03-04T15:43:47.759Z,988.96
2018-03-04T15:44:47.738Z,988.96
2018-03-04T15:45:47.708Z,988.95
2018-03-04T15:46:47.685Z,988.91
2018-03-04T15:47:47.663Z,988.91
2018-03-04T15:48:47.646Z,988.93
2018-03-04T15:49:47.612Z,988.92
2018-03-04T15:50:47.590Z,988.88
2018-03-04T15:51:47.567Z,988.91
2018-03-04T15:52:47.580Z,988.93
2018-03-04T15:53:47.521Z,988.96
2018-03-04T15:54:47.505Z,988.93
2018-03-04T15:55:47.529Z,988.90
2018-03-04T15:56:47.451Z,988.90
2018-03-04T15:57:47.424Z,988.91
2018-03-04T15:58:47.398Z,988.89
2018-03-04T15:59:47.374Z,988.85
2018-03-04T16:00:47.348Z,988.85
2018-03-04T16:01:47.325Z,988.81
2018-03-04T16:02:47.303Z,988.82
2018-03-04T16:03:47.277Z,988.80
2018-03-04T16:04:47.254Z,988.76
2018-03-04T16:05:47.280Z,988.75
2018-03-04T16:06:47.237Z,988.72
2018-03-04T16:07:47.247Z,988.71
2018-03-04T16:08:47.147Z,988.67
2018-03-04T16:09:47.122Z,988.65
2018-03-04T16:10:47.106Z,988.65
2018-03-04T16:11:47.078Z,988.62
2018-03-04T16:12:47.049Z,988.63
2018-03-04T16:13:47.028Z,988.61
2018-03-04T16:14:47.005Z,988.62
2018-03-04T16:15:46.971Z,988.67
2018-03-04T16:16:46.951Z,988.67
2018-03-04T16:17:46.940Z,988.62
2018-03-04T16:18:46.918Z,988.61
2018-03-04T16:19:46.883Z,988.56
2018-03-04T16:20:46.853Z,988.59
2018-03-04T16:21:46.829Z,988.58
2018-03-04T16:22:46.804Z,988.57
2018-03-04T16:23:46.784Z,988.57
2018-03-04T16:24:46.754Z,988.53
2018-03-04T16:25:46.725Z,988.53
2018-03-04T16:26:46.705Z,988.53
2018-03-04T16:27:46.681Z,988.52
2018-03-04T16:28:46.652Z,988.56
2018-03-04T16:29:46.626Z,988.55
2018-03-04T16:30:46.598Z,988.57
2018-03-04T16:31:46.571Z,988.56
2018-03-04T16:32:46.548Z,988.52
2018-03-04T16:33:46.548Z,988.52
2018-03-04T16:34:46.517Z,988.54
2018-03-04T16:35:46.475Z,988.55
2018-03-04T16:36:46.465Z,988.47
2018-03-04T16:37:46.430Z,988.48
2018-03-04T16:38:46.393Z,988.44
2018-03-04T16:39:46.378Z,988.42
2018-03-04T16:40:46.346Z,988.40
2018-03-04T16:41:46.319Z,988.37
2018-03-04T16:42:46.297Z,988.40
2018-03-04T16:43:46.271Z,988.39
2018-03-04T16:44:46.234Z,988.40
2018-03-04T16:45:46.226Z,988.36
2018-03-04T16:46:46.191Z,988.35
2018-03-04T16:47:46.168Z,988.31
2018-03-04T16:48:46.143Z,988.30
2018-03-04T16:49:46.112Z,988.25
2018-03-04T16:50:46.096Z,988.19
2018-03-04T16:51:46.067Z,988.16
2018-03-04T16:52:46.039Z,988.18
2018-03-04T16:53:46.010Z,988.19
2018-03-04T16:54:45.986Z,988.26
2018-03-04T16:55:45.997Z,988.23
2018-03-04T16:56:45.938Z,988.23
2018-03-04T16:57:45.907Z,988.23
2018-03-04T16:58:45.887Z,988.23
2018-03-04T16:59:45.856Z,988.23
2018-03-04T17:00:45.826Z,988.23
2018-03-04T17:01:45.804Z,988.25
2018-03-04T17:02:45.785Z,988.21
2018-03-04T17:03:45.755Z,988.22
2018-03-04T17:04:45.723Z,988.22
2018-03-04T17:05:45.696Z,988.18
2018-03-04T17:06:45.669Z,988.16
2018-03-04T17:07:45.652Z,988.17
2018-03-04T17:08:45.627Z,988.16
2018-03-04T17:09:45.594Z,988.18
2018-03-04T17:10:45.599Z,988.16
2018-03-04T17:11:45.546Z,988.15
2018-03-04T17:12:45.521Z,988.17
2018-03-04T17:13:45.508Z,988.19
2018-03-04T17:14:45.469Z,988.18
2018-03-04T17:15:45.450Z,988.26
2018-03-04T17:16:45.414Z,988.23
2018-03-04T17:17:45.387Z,988.26
2018-03-04T17:18:45.357Z,988.33
2018-03-04T17:19:45.338Z,988.34
2018-03-04T17:20:45.303Z,988.33
2018-03-04T17:21:45.277Z,988.35
2018-03-04T17:22:45.257Z,988.37
2018-03-04T17:23:45.231Z,988.42
2018-03-04T17:24:45.213Z,988.46
2018-03-04T17:25:45.174Z,988.50
2018-03-04T17:26:45.154Z,988.54
2018-03-04T17:27:45.128Z,988.53
2018-03-04T17:28:45.092Z,988.51
2018-03-04T17:29:45.074Z,988.48
2018-03-04T17:30:45.040Z,988.51
2018-03-04T17:31:45.012Z,988.47
2018-03-04T17:32:44.990Z,988.50
2018-03-04T17:33:44.964Z,988.50
2018-03-04T17:34:44.939Z,988.42
2018-03-04T17:35:44.924Z,988.40
2018-03-04T17:36:44.887Z,988.39
2018-03-04T17:37:44.849Z,988.35
2018-03-04T17:38:44.830Z,988.40
2018-03-04T17:39:44.805Z,988.35
2018-03-04T17:40:44.771Z,988.38
2018-03-04T17:41:44.755Z,988.37
2018-03-04T17:42:44.728Z,988.37
2018-03-04T17:43:44.700Z,988.34
2018-03-04T17:44:44.683Z,988.37
2018-03-04T17:45:44.658Z,988.38
2018-03-04T17:46:44.611Z,988.36
2018-03-04T17:47:44.594Z,988.37
2018-03-04T17:48:44.573Z,988.41
2018-03-04T17:49:44.541Z,988.33
2018-03-04T17:50:44.526Z,988.32
2018-03-04T17:51:44.487Z,988.27
2018-03-04T17:52:44.459Z,988.30
2018-03-04T17:53:44.427Z,988.24
2018-03-04T17:54:44.419Z,988.24
2018-03-04T17:55:44.389Z,988.21
2018-03-04T17:56:44.354Z,988.25
2018-03-04T17:57:44.355Z,988.23
2018-03-04T17:58:44.319Z,988.21
2018-03-04T17:59:44.270Z,988.23
2018-03-04T18:00:44.249Z,988.22
2018-03-04T18:01:44.234Z,988.19
2018-03-04T18:02:44.191Z,988.24
2018-03-04T18:03:44.168Z,988.23
2018-03-04T18:04:44.155Z,988.23
2018-03-04T18:05:44.110Z,988.18
2018-03-04T18:06:44.109Z,988.16
2018-03-04T18:07:44.067Z,988.16
2018-03-04T18:08:44.073Z,988.14
2018-03-04T18:09:44.008Z,988.16
2018-03-04T18:10:43.982Z,988.14
2018-03-04T18:11:43.957Z,988.16
2018-03-04T18:12:43.944Z,988.15
2018-03-04T18:13:43.906Z,988.13
2018-03-04T18:14:43.873Z,988.15
2018-03-04T18:15:43.847Z,988.17
2018-03-04T18:16:43.819Z,988.12
2018-03-04T18:17:43.800Z,988.10
2018-03-04T18:18:43.779Z,988.15
2018-03-04T18:19:43.742Z,988.10
2018-03-04T18:20:43.754Z,988.09
2018-03-04T18:21:43.695Z,988.11
2018-03-04T18:22:43.678Z,988.06
2018-03-04T18:23:43.626Z,988.17
2018-03-04T18:24:43.607Z,988.09
2018-03-04T18:25:43.583Z,988.09
2018-03-04T18:26:43.557Z,988.04
2018-03-04T18:27:43.529Z,988.04
2018-03-04T18:28:43.502Z,988.02
2018-03-04T18:29:43.471Z,988.00
2018-03-04T18:30:43.446Z,988.00
2018-03-04T18:31:43.419Z,987.97
2018-03-04T18:32:43.393Z,987.99
2018-03-04T18:33:43.365Z,988.02
2018-03-04T18:34:43.348Z,988.01
2018-03-04T18:35:43.315Z,988.02
2018-03-04T18:36:43.283Z,988.01
2018-03-04T18:37:43.255Z,987.98
2018-03-04T18:38:43.251Z,987.97
2018-03-04T18:39:43.207Z,988.01
2018-03-04T18:40:43.180Z,987.99
2018-03-04T18:41:43.151Z,988.00
2018-03-04T18:42:43.125Z,988.06
2018-03-04T18:43:43.103Z,988.10
2018-03-04T18:44:43.069Z,988.14
2018-03-04T18:45:43.047Z,988.14
2018-03-04T18:46:43.024Z,988.17
2018-03-04T18:47:42.990Z,988.19
2018-03-04T18:48:42.962Z,988.20
2018-03-04T18:49:42.941Z,988.26
2018-03-04T18:50:42.955Z,988.26
2018-03-04T18:51:42.882Z,988.26
2018-03-04T18:52:42.853Z,988.27
2018-03-04T18:53:42.829Z,988.32
2018-03-04T18:54:42.802Z,988.30
2018-03-04T18:55:42.779Z,988.32
2018-03-04T18:56:42.758Z,988.34
2018-03-04T18:57:42.714Z,988.34
2018-03-04T18:58:42.698Z,988.30
2018-03-04T18:59:42.668Z,988.30
2018-03-04T19:00:42.636Z,988.30
2018-03-04T19:01:42.633Z,988.28
2018-03-04T19:02:42.597Z,988.32
2018-03-04T19:03:42.583Z,988.30
2018-03-04T19:04:42.534Z,988.27
2018-03-04T19:05:42.509Z,988.28
2018-03-04T19:06:42.492Z,988.29
2018-03-04T19:07:42.454Z,988.26
2018-03-04T19:08:42.443Z,988.27
2018-03-04T19:09:42.404Z,988.25
2018-03-04T19:10:42.379Z,988.29
2018-03-04T19:11:42.359Z,988.29
2018-03-04T19:12:42.323Z,988.27
2018-03-04T19:13:42.297Z,988.28
2018-03-04T19:14:42.276Z,988.24
2018-03-04T19:15:42.248Z,988.25
2018-03-04T19:16:42.221Z,988.24
2018-03-04T19:17:42.197Z,988.26
2018-03-04T19:18:42.165Z,988.28
2018-03-04T19:19:42.151Z,988.31
2018-03-04T19:20:42.105Z,988.29
2018-03-04T19:21:42.085Z,988.35
2018-03-04T19:22:42.054Z,988.36
2018-03-04T19:23:42.033Z,988.37
2018-03-04T19:24:42.003Z,988.38
2018-03-04T19:25:41.995Z,988.38
2018-03-04T19:26:41.951Z,988.39
2018-03-04T19:27:41.922Z,988.40
2018-03-04T19:28:41.895Z,988.42
2018-03-04T19:29:41.877Z,988.38
2018-03-04T19:30:41.869Z,988.37
2018-03-04T19:31:41.822Z,988.37
2018-03-04T19:32:41.794Z,988.46
2018-03-04T19:33:41.765Z,988.37
2018-03-04T19:34:41.738Z,988.38
2018-03-04T19:35:41.737Z,988.34
2018-03-04T19:36:41.678Z,988.32
2018-03-04T19:37:41.673Z,988.25
2018-03-04T19:38:41.634Z,988.21
2018-03-04T19:39:41.605Z,988.22
2018-03-04T19:40:41.578Z,988.16
2018-03-04T19:41:41.562Z,988.14
2018-03-04T19:42:41.523Z,988.15
2018-03-04T19:43:41.503Z,988.12
2018-03-04T19:44:41.472Z,987.96
2018-03-04T19:45:41.444Z,987.96
2018-03-04T19:46:41.428Z,987.91
2018-03-04T19:47:41.404Z,987.87
2018-03-04T19:48:41.378Z,987.80
2018-03-04T19:49:41.339Z,987.74
2018-03-04T19:50:41.312Z,987.64
2018-03-04T19:51:41.284Z,987.59
2018-03-04T19:52:41.283Z,987.59
2018-03-04T19:53:41.230Z,987.59
2018-03-04T19:54:41.200Z,987.62
2018-03-04T19:55:41.218Z,987.62
2018-03-04T19:56:41.154Z,987.60
2018-03-04T19:57:41.128Z,987.55
2018-03-04T19:58:41.100Z,987.48
2018-03-04T19:59:41.069Z,987.44
2018-03-04T20:00:41.059Z,987.38
2018-03-04T20:01:41.035Z,987.33
2018-03-04T20:02:40.986Z,987.41
2018-03-04T20:03:40.978Z,987.39
2018-03-04T20:04:40.945Z,987.42
2018-03-04T20:05:40.922Z,987.55
2018-03-04T20:06:40.882Z,987.59
2018-03-04T20:07:40.861Z,987.60
2018-03-04T20:08:40.828Z,987.67
2018-03-04T20:09:40.801Z,987.75
2018-03-04T20:10:40.777Z,987.77
2018-03-04T20:11:40.748Z,987.77
2018-03-04T20:12:40.725Z,987.80
2018-03-04T20:13:40.693Z,987.73
2018-03-04T20:14:40.665Z,987.75
2018-03-04T20:15:40.651Z,987.81
2018-03-04T20:16:40.618Z,987.78
2018-03-04T20:17:40.587Z,987.76
2018-03-04T20:18:40.554Z,987.75
2018-03-04T20:19:40.543Z,987.76
2018-03-04T20:20:40.509Z,987.77
2018-03-04T20:21:40.483Z,987.77
2018-03-04T20:22:40.453Z,987.78
2018-03-04T20:23:40.427Z,987.78
2018-03-04T20:24:40.402Z,987.75
2018-03-04T20:25:40.381Z,987.72
2018-03-04T20:26:40.346Z,987.67
2018-03-04T20:27:40.313Z,987.68
2018-03-04T20:28:40.312Z,987.68
2018-03-04T20:29:40.263Z,987.59
2018-03-04T20:30:40.237Z,987.57
2018-03-04T20:31:40.213Z,987.58
2018-03-04T20:32:40.183Z,987.56
2018-03-04T20:33:40.157Z,987.54
2018-03-04T20:34:40.132Z,987.50
2018-03-04T20:35:40.105Z,987.55
2018-03-04T20:36:40.080Z,987.51
2018-03-04T20:37:40.062Z,987.42
2018-03-04T20:38:40.022Z,987.47
2018-03-04T20:39:39.996Z,987.42
2018-03-04T20:40:39.970Z,987.44
2018-03-04T20:41:39.949Z,987.45
2018-03-04T20:42:39.911Z,987.44
2018-03-04T20:43:39.897Z,987.47
2018-03-04T20:44:39.864Z,987.49
2018-03-04T20:45:39.833Z,987.49
2018-03-04T20:46:39.813Z,987.45
2018-03-04T20:47:39.792Z,987.40
2018-03-04T20:48:39.758Z,987.32
2018-03-04T20:49:39.726Z,987.15
2018-03-04T20:50:39.700Z,987.15
2018-03-04T20:51:39.672Z,987.15
2018-03-04T20:52:39.680Z,987.07
2018-03-04T20:53:39.613Z,986.98
2018-03-04T20:54:39.585Z,986.93
2018-03-04T20:55:39.567Z,986.89
2018-03-04T20:56:39.538Z,986.92
2018-03-04T20:57:39.515Z,986.85
2018-03-04T20:58:39.495Z,986.77
2018-03-04T20:59:39.460Z,986.83
2018-03-04T21:00:39.429Z,986.86
2018-03-04T21:01:39.409Z,986.84
2018-03-04T21:02:39.378Z,986.85
2018-03-04T21:03:39.348Z,986.81
2018-03-04T21:04:39.319Z,986.89
2018-03-04T21:05:39.315Z,986.87
2018-03-04T21:06:39.270Z,986.96
2018-03-04T21:07:39.271Z,986.96
2018-03-04T21:08:39.214Z,986.98
2018-03-04T21:09:39.186Z,986.97
2018-03-04T21:10:39.155Z,987.00
2018-03-04T21:11:39.136Z,986.92
2018-03-04T21:12:39.163Z,986.89
2018-03-04T21:13:39.084Z,986.86
2018-03-04T21:14:39.077Z,986.83
2018-03-04T21:15:39.034Z,986.78
2018-03-04T21:16:39.019Z,986.73
2018-03-04T21:17:38.973Z,986.64
2018-03-04T21:18:38.951Z,986.68
2018-03-04T21:19:38.945Z,986.67
2018-03-04T21:20:38.887Z,986.67
2018-03-04T21:21:38.862Z,986.67
2018-03-04T21:22:38.843Z,986.67
2018-03-04T21:23:38.810Z,986.73
2018-03-04T21:24:38.783Z,986.69
2018-03-04T21:25:38.758Z,986.63
2018-03-04T21:26:38.756Z,986.64
2018-03-04T21:27:38.703Z,986.68
2018-03-04T21:28:38.677Z,986.67
2018-03-04T21:29:38.645Z,986.70
2018-03-04T21:30:38.621Z,986.75
2018-03-04T21:31:38.601Z,986.72
2018-03-04T21:32:38.562Z,986.72
2018-03-04T21:33:38.554Z,986.68
2018-03-04T21:34:38.513Z,986.70
2018-03-04T21:35:38.488Z,986.73
2018-03-04T21:36:38.455Z,986.72
2018-03-04T21:37:38.431Z,986.68
2018-03-04T21:38:38.404Z,986.73
2018-03-04T21:39:38.379Z,986.63
2018-03-04T21:40:38.351Z,986.59
2018-03-04T21:41:38.322Z,986.57
2018-03-04T21:42:38.302Z,986.59
2018-03-04T21:43:38.270Z,986.62
2018-03-04T21:44:38.235Z,986.71
2018-03-04T21:45:38.219Z,986.73
2018-03-04T21:46:38.186Z,986.71
2018-03-04T21:47:38.155Z,986.63
2018-03-04T21:48:38.136Z,986.68
2018-03-04T21:49:38.112Z,986.72
2018-03-04T21:50:38.075Z,986.74
2018-03-04T21:51:38.053Z,986.77
2018-03-04T21:52:38.022Z,986.79
2018-03-04T21:53:37.999Z,986.81
2018-03-04T21:54:38.006Z,986.81
2018-03-04T21:55:37.942Z,986.79
2018-03-04T21:56:37.917Z,986.75
2018-03-04T21:57:37.891Z,986.74
2018-03-04T21:58:37.860Z,986.66
2018-03-04T21:59:37.836Z,986.74
2018-03-04T22:00:37.805Z,986.77
2018-03-04T22:01:37.778Z,986.79
2018-03-04T22:02:37.767Z,986.82
2018-03-04T22:03:37.728Z,986.87
2018-03-04T22:04:37.694Z,986.89
2018-03-04T22:05:37.697Z,986.89
2018-03-04T22:06:37.644Z,986.85
2018-03-04T22:07:37.614Z,986.85
2018-03-04T22:08:37.589Z,986.83
2018-03-04T22:09:37.564Z,986.83
2018-03-04T22:10:37.533Z,986.80
2018-03-04T22:11:37.506Z,986.78
2018-03-04T22:12:37.492Z,986.82
2018-03-04T22:13:37.447Z,986.83
2018-03-04T22:14:37.426Z,986.86
2018-03-04T22:15:37.408Z,986.81
2018-03-04T22:16:37.368Z,986.81
2018-03-04T22:17:37.342Z,986.82
2018-03-04T22:18:37.320Z,986.85
2018-03-04T22:19:37.296Z,986.81
2018-03-04T22:20:37.266Z,986.80
2018-03-04T22:21:37.236Z,986.80
2018-03-04T22:22:37.203Z,986.79
2018-03-04T22:23:37.178Z,986.79
2018-03-04T22:24:37.157Z,986.81
2018-03-04T22:25:37.132Z,986.81
2018-03-04T22:26:37.096Z,986.83
2018-03-04T22:27:37.076Z,986.84
2018-03-04T22:28:37.048Z,986.84
2018-03-04T22:29:37.022Z,986.85
2018-03-04T22:30:36.996Z,986.83
2018-03-04T22:31:36.978Z,986.81
2018-03-04T22:32:36.934Z,986.87
2018-03-04T22:33:36.902Z,986.88
2018-03-04T22:34:36.885Z,986.85
2018-03-04T22:35:36.858Z,986.86
2018-03-04T22:36:36.832Z,986.89
2018-03-04T22:37:36.804Z,986.84
2018-03-04T22:38:36.775Z,986.90
2018-03-04T22:39:36.749Z,986.84
2018-03-04T22:40:36.719Z,986.88
2018-03-04T22:41:36.690Z,986.90
2018-03-04T22:42:36.685Z,986.92
2018-03-04T22:43:36.639Z,986.90
2018-03-04T22:44:36.610Z,986.92
2018-03-04T22:45:36.587Z,986.91
2018-03-04T22:46:36.562Z,986.94
2018-03-04T22:47:36.528Z,986.93
2018-03-04T22:48:36.547Z,986.97
2018-03-04T22:49:36.484Z,987.00
2018-03-04T22:50:36.446Z,987.02
2018-03-04T22:51:36.464Z,986.98
2018-03-04T22:52:36.402Z,987.02
2018-03-04T22:53:36.365Z,987.05
2018-03-04T22:54:36.365Z,987.01
2018-03-04T22:55:36.314Z,987.06
2018-03-04T22:56:36.283Z,987.01
2018-03-04T22:57:36.281Z,987.05
2018-03-04T22:58:36.235Z,987.04
2018-03-04T22:59:36.203Z,987.07
2018-03-04T23:00:36.197Z,987.06
2018-03-04T23:01:36.143Z,987.10
2018-03-04T23:02:36.123Z,987.12
2018-03-04T23:03:36.088Z,987.12
2018-03-04T23:04:36.066Z,987.12
2018-03-04T23:05:36.039Z,987.16
2018-03-04T23:06:36.011Z,987.17
2018-03-04T23:07:35.988Z,987.19
2018-03-04T23:08:35.954Z,987.22
2018-03-04T23:09:35.925Z,987.21
2018-03-04T23:10:35.896Z,987.21
2018-03-04T23:11:35.874Z,987.25
2018-03-04T23:12:35.842Z,987.27